sensor_id;sensor_type;location;lat;lon;timestamp;pressure;altitude;pressure_sealevel;temperature;humidity
43147;BME280;28752;48.266;7.402;2023-04-02T00:08:54;98718.28;;;9.06;84.69
43147;BME280;28752;48.266;7.402;2023-04-02T00:11:36;98708.50;;;8.98;85.32
43147;BME280;28752;48.266;7.402;2023-04-02T00:14:14;98720.31;;;9.12;85.01
43147;BME280;28752;48.266;7.402;2023-04-02T00:16:40;98728.38;;;9.11;85.46
43147;BME280;28752;48.266;7.402;2023-04-02T00:19:07;98715.28;;;9.01;85.80
43147;BME280;28752;48.266;7.402;2023-04-02T00:21:38;98727.06;;;9.06;84.63
43147;BME280;28752;48.266;7.402;2023-04-02T00:24:16;98740.00;;;9.18;83.99
43147;BME280;28752;48.266;7.402;2023-04-02T00:26:45;98724.50;;;9.23;83.64
43147;BME280;28752;48.266;7.402;2023-04-02T00:29:13;98734.41;;;9.21;84.02
43147;BME280;28752;48.266;7.402;2023-04-02T00:31:44;98721.50;;;9.18;84.34
43147;BME280;28752;48.266;7.402;2023-04-02T00:34:36;98724.72;;;9.30;84.25
43147;BME280;28752;48.266;7.402;2023-04-02T00:37:03;98728.16;;;9.22;85.42
43147;BME280;28752;48.266;7.402;2023-04-02T00:39:31;98726.84;;;9.26;84.69
43147;BME280;28752;48.266;7.402;2023-04-02T00:41:58;98731.72;;;9.13;84.68
43147;BME280;28752;48.266;7.402;2023-04-02T00:44:31;98732.34;;;9.33;83.33
43147;BME280;28752;48.266;7.402;2023-04-02T00:47:05;98730.19;;;9.28;82.75
43147;BME280;28752;48.266;7.402;2023-04-02T00:49:37;98730.19;;;9.28;83.34
43147;BME280;28752;48.266;7.402;2023-04-02T00:52:07;98729.63;;;9.24;83.33
43147;BME280;28752;48.266;7.402;2023-04-02T00:57:26;98720.84;;;9.16;83.15
43147;BME280;28752;48.266;7.402;2023-04-02T01:02:29;98721.47;;;9.10;85.00
43147;BME280;28752;48.266;7.402;2023-04-02T01:07:30;98738.59;;;9.32;84.73
43147;BME280;28752;48.266;7.402;2023-04-02T01:15:32;98723.44;;;9.34;84.02
43147;BME280;28752;48.266;7.402;2023-04-02T01:25:58;98750.53;;;9.36;83.73
43147;BME280;28752;48.266;7.402;2023-04-02T01:31:14;98756.28;;;9.31;83.48
43147;BME280;28752;48.266;7.402;2023-04-02T01:33:40;98754.47;;;9.32;84.74
43147;BME280;28752;48.266;7.402;2023-04-02T01:36:14;98750.56;;;9.18;85.07
43147;BME280;28752;48.266;7.402;2023-04-02T01:38:52;98764.59;;;9.18;nan
43147;BME280;28752;48.266;7.402;2023-04-02T01:41:48;98767.31;;;9.27;84.81
43147;BME280;28752;48.266;7.402;2023-04-02T01:44:27;98766.66;;;9.51;83.51
43147;BME280;28752;48.266;7.402;2023-04-02T01:46:54;98747.00;;;9.27;84.57
43147;BME280;28752;48.266;7.402;2023-04-02T01:49:23;98756.91;;;9.07;85.93
43147;BME280;28752;48.266;7.402;2023-04-02T01:51:54;98768.22;;;9.35;85.06
43147;BME280;28752;48.266;7.402;2023-04-02T01:54:23;98765.19;;;9.30;84.90
43147;BME280;28752;48.266;7.402;2023-04-02T01:56:50;98759.16;;;9.20;84.89
43147;BME280;28752;48.266;7.402;2023-04-02T01:59:18;98768.94;;;9.28;85.08
43147;BME280;28752;48.266;7.402;2023-04-02T02:02:02;98776.53;;;9.22;85.76
43147;BME280;28752;48.266;7.402;2023-04-02T02:04:28;98767.63;;;9.23;85.43
43147;BME280;28752;48.266;7.402;2023-04-02T02:06:57;98773.09;;;9.30;84.87
43147;BME280;28752;48.266;7.402;2023-04-02T02:09:27;98779.50;;;9.28;85.03
43147;BME280;28752;48.266;7.402;2023-04-02T02:11:56;98774.34;;;9.18;85.24
43147;BME280;28752;48.266;7.402;2023-04-02T02:14:23;98774.84;;;9.21;84.93
43147;BME280;28752;48.266;7.402;2023-04-02T02:16:49;98781.97;;;9.21;84.22
43147;BME280;28752;48.266;7.402;2023-04-02T02:19:25;98787.09;;;9.22;83.83
43147;BME280;28752;48.266;7.402;2023-04-02T02:21:53;98775.75;;;9.30;84.04
43147;BME280;28752;48.266;7.402;2023-04-02T02:24:22;98785.25;;;9.23;84.38
43147;BME280;28752;48.266;7.402;2023-04-02T02:29:37;98779.41;;;9.11;85.13
43147;BME280;28752;48.266;7.402;2023-04-02T02:32:06;98792.31;;;9.14;84.87
43147;BME280;28752;48.266;7.402;2023-04-02T02:34:39;98787.84;;;9.15;85.89
43147;BME280;28752;48.266;7.402;2023-04-02T02:37:11;98786.47;;;9.11;85.28
43147;BME280;28752;48.266;7.402;2023-04-02T02:39:42;98790.34;;;9.16;85.63
43147;BME280;28752;48.266;7.402;2023-04-02T02:42:24;98775.56;;;9.05;85.51
43147;BME280;28752;48.266;7.402;2023-04-02T02:44:53;98790.84;;;9.20;85.57
43147;BME280;28752;48.266;7.402;2023-04-02T02:47:23;98789.81;;;9.13;85.90
43147;BME280;28752;48.266;7.402;2023-04-02T02:49:59;98796.13;;;9.20;86.16
43147;BME280;28752;48.266;7.402;2023-04-02T02:52:36;98790.50;;;8.97;87.98
43147;BME280;28752;48.266;7.402;2023-04-02T02:55:04;98798.09;;;9.18;87.01
43147;BME280;28752;48.266;7.402;2023-04-02T02:57:43;98800.28;;;9.22;85.44
43147;BME280;28752;48.266;7.402;2023-04-02T03:00:12;98804.66;;;9.14;85.72
43147;BME280;28752;48.266;7.402;2023-04-02T03:02:40;98804.59;;;9.05;86.76
43147;BME280;28752;48.266;7.402;2023-04-02T03:05:08;98802.41;;;9.19;86.84
43147;BME280;28752;48.266;7.402;2023-04-02T03:07:34;98809.66;;;9.17;86.66
43147;BME280;28752;48.266;7.402;2023-04-02T03:10:18;98814.31;;;9.23;86.81
43147;BME280;28752;48.266;7.402;2023-04-02T03:13:01;98817.81;;;9.23;86.80
43147;BME280;28752;48.266;7.402;2023-04-02T03:18:41;98824.88;;;9.23;87.74
43147;BME280;28752;48.266;7.402;2023-04-02T03:27:00;98831.16;;;9.22;87.70
43147;BME280;28752;48.266;7.402;2023-04-02T03:29:33;98827.75;;;9.30;87.43
43147;BME280;28752;48.266;7.402;2023-04-02T03:32:08;98833.34;;;9.27;87.48
43147;BME280;28752;48.266;7.402;2023-04-02T03:34:45;98830.88;;;9.25;87.83
43147;BME280;28752;48.266;7.402;2023-04-02T03:37:22;98824.97;;;9.13;87.82
43147;BME280;28752;48.266;7.402;2023-04-02T03:40:06;98818.47;;;9.07;87.59
43147;BME280;28752;48.266;7.402;2023-04-02T03:42:40;98831.31;;;9.20;87.98
43147;BME280;28752;48.266;7.402;2023-04-02T03:45:16;98836.50;;;9.12;88.17
43147;BME280;28752;48.266;7.402;2023-04-02T03:47:59;98831.38;;;9.11;89.10
43147;BME280;28752;48.266;7.402;2023-04-02T03:50:34;98839.47;;;9.09;88.83
43147;BME280;28752;48.266;7.402;2023-04-02T03:53:03;98840.47;;;9.08;89.13
43147;BME280;28752;48.266;7.402;2023-04-02T03:55:35;98838.63;;;9.09;89.06
43147;BME280;28752;48.266;7.402;2023-04-02T03:58:13;98853.06;;;9.32;88.16
43147;BME280;28752;48.266;7.402;2023-04-02T04:00:45;98848.97;;;9.20;88.61
43147;BME280;28752;48.266;7.402;2023-04-02T04:03:20;98852.00;;;9.25;88.30
43147;BME280;28752;48.266;7.402;2023-04-02T04:06:08;98856.28;;;9.26;88.18
43147;BME280;28752;48.266;7.402;2023-04-02T04:08:45;98858.63;;;9.29;87.84
43147;BME280;28752;48.266;7.402;2023-04-02T04:11:17;98859.00;;;9.34;87.66
43147;BME280;28752;48.266;7.402;2023-04-02T04:16:30;98860.22;;;9.22;88.26
43147;BME280;28752;48.266;7.402;2023-04-02T04:19:03;98866.13;;;9.16;88.91
43147;BME280;28752;48.266;7.402;2023-04-02T04:21:31;98868.16;;;9.22;88.74
43147;BME280;28752;48.266;7.402;2023-04-02T04:24:03;98862.56;;;9.25;87.90
43147;BME280;28752;48.266;7.402;2023-04-02T04:26:44;98871.09;;;9.37;87.85
43147;BME280;28752;48.266;7.402;2023-04-02T04:29:45;98872.66;;;9.48;87.22
43147;BME280;28752;48.266;7.402;2023-04-02T04:32:28;98874.88;;;9.34;87.85
43147;BME280;28752;48.266;7.402;2023-04-02T04:35:03;98880.50;;;9.39;88.32
43147;BME280;28752;48.266;7.402;2023-04-02T04:37:36;98873.19;;;9.33;88.02
43147;BME280;28752;48.266;7.402;2023-04-02T04:40:08;98878.63;;;9.32;88.08
43147;BME280;28752;48.266;7.402;2023-04-02T04:42:37;98886.34;;;9.25;88.63
43147;BME280;28752;48.266;7.402;2023-04-02T04:48:23;98889.03;;;9.33;88.52
43147;BME280;28752;48.266;7.402;2023-04-02T04:51:04;98899.72;;;9.41;88.47
43147;BME280;28752;48.266;7.402;2023-04-02T04:53:31;98903.94;;;9.34;88.67
43147;BME280;28752;48.266;7.402;2023-04-02T04:56:02;98900.44;;;9.52;87.75
43147;BME280;28752;48.266;7.402;2023-04-02T04:58:41;98903.00;;;9.43;87.74
43147;BME280;28752;48.266;7.402;2023-04-02T05:03:59;98904.22;;;9.31;88.96
43147;BME280;28752;48.266;7.402;2023-04-02T05:09:27;98901.50;;;9.41;87.94
43147;BME280;28752;48.266;7.402;2023-04-02T05:19:33;98925.13;;;9.42;88.17
43147;BME280;28752;48.266;7.402;2023-04-02T05:22:37;98926.50;;;9.47;88.04
43147;BME280;28752;48.266;7.402;2023-04-02T05:35:45;98924.47;;;9.58;87.29
43147;BME280;28752;48.266;7.402;2023-04-02T05:38:27;98934.03;;;9.77;86.99
43147;BME280;28752;48.266;7.402;2023-04-02T05:41:01;98934.56;;;9.81;86.90
43147;BME280;28752;48.266;7.402;2023-04-02T05:43:29;98940.22;;;9.86;86.33
43147;BME280;28752;48.266;7.402;2023-04-02T05:45:58;98943.22;;;9.91;85.40
43147;BME280;28752;48.266;7.402;2023-04-02T05:48:38;98946.63;;;9.84;83.98
43147;BME280;28752;48.266;7.402;2023-04-02T05:51:08;98939.84;;;9.81;82.68
43147;BME280;28752;48.266;7.402;2023-04-02T05:53:45;98941.28;;;9.93;83.50
43147;BME280;28752;48.266;7.402;2023-04-02T05:56:20;98945.97;;;9.82;83.47
43147;BME280;28752;48.266;7.402;2023-04-02T05:58:48;98951.47;;;9.88;83.25
43147;BME280;28752;48.266;7.402;2023-04-02T06:01:31;98953.25;;;10.06;82.86
43147;BME280;28752;48.266;7.402;2023-04-02T06:06:47;98962.81;;;9.81;83.06
43147;BME280;28752;48.266;7.402;2023-04-02T06:09:20;98967.47;;;9.87;84.75
43147;BME280;28752;48.266;7.402;2023-04-02T06:12:02;98978.28;;;9.93;85.36
43147;BME280;28752;48.266;7.402;2023-04-02T06:14:32;98975.97;;;10.17;85.22
43147;BME280;28752;48.266;7.402;2023-04-02T06:16:57;98978.41;;;10.28;84.73
43147;BME280;28752;48.266;7.402;2023-04-02T06:19:28;98980.97;;;10.38;83.86
43147;BME280;28752;48.266;7.402;2023-04-02T06:21:59;98985.00;;;10.32;85.13
43147;BME280;28752;48.266;7.402;2023-04-02T06:24:32;98983.91;;;10.35;85.13
43147;BME280;28752;48.266;7.402;2023-04-02T06:27:03;98990.53;;;10.57;84.77
43147;BME280;28752;48.266;7.402;2023-04-02T06:29:33;98996.72;;;10.47;85.54
43147;BME280;28752;48.266;7.402;2023-04-02T06:32:05;98990.38;;;10.58;84.97
43147;BME280;28752;48.266;7.402;2023-04-02T06:34:32;98990.91;;;10.44;85.87
43147;BME280;28752;48.266;7.402;2023-04-02T06:37:03;98999.44;;;10.56;85.57
43147;BME280;28752;48.266;7.402;2023-04-02T06:39:29;99009.28;;;10.72;84.71
43147;BME280;28752;48.266;7.402;2023-04-02T06:41:59;98999.16;;;10.67;84.96
43147;BME280;28752;48.266;7.402;2023-04-02T06:44:31;99010.47;;;10.77;84.32
43147;BME280;28752;48.266;7.402;2023-04-02T06:47:00;99017.00;;;10.91;83.65
43147;BME280;28752;48.266;7.402;2023-04-02T06:49:41;99008.81;;;11.11;83.00
43147;BME280;28752;48.266;7.402;2023-04-02T06:52:18;99020.06;;;11.13;82.92
43147;BME280;28752;48.266;7.402;2023-04-02T06:54:45;99014.88;;;11.37;82.25
43147;BME280;28752;48.266;7.402;2023-04-02T06:57:11;99022.03;;;11.45;81.50
43147;BME280;28752;48.266;7.402;2023-04-02T06:59:37;99027.31;;;11.45;81.60
43147;BME280;28752;48.266;7.402;2023-04-02T07:02:03;99029.97;;;11.53;81.66
43147;BME280;28752;48.266;7.402;2023-04-02T07:04:30;99031.22;;;11.76;80.68
43147;BME280;28752;48.266;7.402;2023-04-02T07:06:56;99031.56;;;11.89;79.43
43147;BME280;28752;48.266;7.402;2023-04-02T07:09:22;99042.19;;;11.97;79.01
43147;BME280;28752;48.266;7.402;2023-04-02T07:11:47;99043.44;;;11.60;79.22
43147;BME280;28752;48.266;7.402;2023-04-02T07:14:13;99023.75;;;11.79;78.82
43147;BME280;28752;48.266;7.402;2023-04-02T07:16:39;99045.69;;;12.31;77.46
43147;BME280;28752;48.266;7.402;2023-04-02T07:19:05;99048.84;;;12.01;78.79
43147;BME280;28752;48.266;7.402;2023-04-02T07:21:32;99047.00;;;12.43;77.08
43147;BME280;28752;48.266;7.402;2023-04-02T07:23:57;99052.31;;;12.59;75.65
43147;BME280;28752;48.266;7.402;2023-04-02T07:26:25;99050.50;;;12.52;75.41
43147;BME280;28752;48.266;7.402;2023-04-02T07:28:53;99048.00;;;12.67;75.32
43147;BME280;28752;48.266;7.402;2023-04-02T07:31:22;99063.75;;;12.85;75.05
43147;BME280;28752;48.266;7.402;2023-04-02T07:33:49;99063.53;;;12.94;75.23
43147;BME280;28752;48.266;7.402;2023-04-02T07:36:15;99073.19;;;12.95;74.41
43147;BME280;28752;48.266;7.402;2023-04-02T07:38:41;99077.50;;;12.88;73.60
43147;BME280;28752;48.266;7.402;2023-04-02T07:41:07;99073.22;;;13.27;71.99
43147;BME280;28752;48.266;7.402;2023-04-02T07:43:33;99078.34;;;13.45;71.44
43147;BME280;28752;48.266;7.402;2023-04-02T07:45:59;99063.44;;;13.67;70.89
43147;BME280;28752;48.266;7.402;2023-04-02T07:48:26;99053.81;;;13.66;70.06
43147;BME280;28752;48.266;7.402;2023-04-02T07:50:51;99075.31;;;14.11;71.38
43147;BME280;28752;48.266;7.402;2023-04-02T07:53:46;99084.38;;;14.25;70.75
43147;BME280;28752;48.266;7.402;2023-04-02T07:56:17;99089.22;;;14.44;69.54
43147;BME280;28752;48.266;7.402;2023-04-02T07:58:42;99091.28;;;14.34;67.26
43147;BME280;28752;48.266;7.402;2023-04-02T08:01:24;99093.00;;;14.27;68.91
43147;BME280;28752;48.266;7.402;2023-04-02T08:03:51;99091.25;;;14.65;67.83
43147;BME280;28752;48.266;7.402;2023-04-02T08:06:17;99092.56;;;14.99;67.44
43147;BME280;28752;48.266;7.402;2023-04-02T08:08:42;99094.94;;;15.09;67.87
43147;BME280;28752;48.266;7.402;2023-04-02T08:11:09;99099.38;;;15.02;66.06
43147;BME280;28752;48.266;7.402;2023-04-02T08:13:35;99106.63;;;15.38;65.16
43147;BME280;28752;48.266;7.402;2023-04-02T08:16:01;99110.31;;;15.07;66.18
43147;BME280;28752;48.266;7.402;2023-04-02T08:18:27;99091.94;;;14.97;66.33
43147;BME280;28752;48.266;7.402;2023-04-02T08:20:53;99111.94;;;14.55;66.49
43147;BME280;28752;48.266;7.402;2023-04-02T08:23:19;99112.28;;;14.75;65.54
43147;BME280;28752;48.266;7.402;2023-04-02T08:25:46;99112.41;;;14.58;66.73
43147;BME280;28752;48.266;7.402;2023-04-02T08:28:12;99118.81;;;14.26;66.92
43147;BME280;28752;48.266;7.402;2023-04-02T08:30:37;99119.06;;;14.63;67.07
43147;BME280;28752;48.266;7.402;2023-04-02T08:33:03;99125.16;;;14.86;65.32
43147;BME280;28752;48.266;7.402;2023-04-02T08:35:28;99132.47;;;14.92;65.04
43147;BME280;28752;48.266;7.402;2023-04-02T08:37:55;99124.53;;;14.84;67.03
43147;BME280;28752;48.266;7.402;2023-04-02T08:40:24;99134.88;;;14.56;67.24
43147;BME280;28752;48.266;7.402;2023-04-02T08:48:19;99148.56;;;15.44;66.29
43147;BME280;28752;48.266;7.402;2023-04-02T08:50:44;99160.34;;;15.64;65.79
43147;BME280;28752;48.266;7.402;2023-04-02T08:56:11;99164.31;;;15.54;65.38
43147;BME280;28752;48.266;7.402;2023-04-02T08:58:48;99165.13;;;15.39;66.01
43147;BME280;28752;48.266;7.402;2023-04-02T09:01:24;99166.72;;;14.57;65.32
43147;BME280;28752;48.266;7.402;2023-04-02T09:03:54;99172.00;;;13.72;66.74
43147;BME280;28752;48.266;7.402;2023-04-02T09:06:21;99166.88;;;13.62;65.64
43147;BME280;28752;48.266;7.402;2023-04-02T09:08:48;99169.97;;;13.34;66.31
43147;BME280;28752;48.266;7.402;2023-04-02T09:11:33;99173.09;;;13.29;67.59
43147;BME280;28752;48.266;7.402;2023-04-02T09:14:03;99171.97;;;12.99;67.59
43147;BME280;28752;48.266;7.402;2023-04-02T09:16:50;99171.31;;;13.05;68.44
43147;BME280;28752;48.266;7.402;2023-04-02T09:19:24;99179.47;;;13.12;68.52
43147;BME280;28752;48.266;7.402;2023-04-02T09:22:06;99173.69;;;13.73;65.94
43147;BME280;28752;48.266;7.402;2023-04-02T09:24:33;99184.50;;;14.02;64.69
43147;BME280;28752;48.266;7.402;2023-04-02T09:26:59;99172.50;;;14.07;64.53
43147;BME280;28752;48.266;7.402;2023-04-02T09:29:38;99181.56;;;14.52;64.17
43147;BME280;28752;48.266;7.402;2023-04-02T09:32:34;99177.25;;;14.97;64.37
43147;BME280;28752;48.266;7.402;2023-04-02T09:37:34;99181.34;;;15.23;59.98
43147;BME280;28752;48.266;7.402;2023-04-02T09:40:24;99185.09;;;15.43;59.04
43147;BME280;28752;48.266;7.402;2023-04-02T09:43:09;99189.16;;;15.54;55.80
43147;BME280;28752;48.266;7.402;2023-04-02T09:45:36;99188.19;;;15.85;57.49
43147;BME280;28752;48.266;7.402;2023-04-02T09:48:01;99204.34;;;15.69;56.95
43147;BME280;28752;48.266;7.402;2023-04-02T09:50:38;99195.25;;;15.78;54.95
43147;BME280;28752;48.266;7.402;2023-04-02T09:53:28;99205.66;;;15.58;53.69
43147;BME280;28752;48.266;7.402;2023-04-02T09:58:33;99206.56;;;15.80;57.08
43147;BME280;28752;48.266;7.402;2023-04-02T10:00:59;99216.78;;;15.76;56.56
43147;BME280;28752;48.266;7.402;2023-04-02T10:03:32;99215.56;;;16.09;56.73
43147;BME280;28752;48.266;7.402;2023-04-02T10:06:14;99212.63;;;16.19;55.68
43147;BME280;28752;48.266;7.402;2023-04-02T10:08:42;99215.94;;;15.91;54.75
43147;BME280;28752;48.266;7.402;2023-04-02T10:11:29;99216.09;;;16.19;55.62
43147;BME280;28752;48.266;7.402;2023-04-02T10:13:59;99221.38;;;16.49;52.86
43147;BME280;28752;48.266;7.402;2023-04-02T10:19:08;99229.97;;;16.44;54.44
43147;BME280;28752;48.266;7.402;2023-04-02T10:21:39;99225.72;;;16.35;51.68
43147;BME280;28752;48.266;7.402;2023-04-02T10:24:13;99234.41;;;16.37;53.61
43147;BME280;28752;48.266;7.402;2023-04-02T10:29:36;99237.25;;;16.36;52.46
43147;BME280;28752;48.266;7.402;2023-04-02T10:35:02;99248.16;;;16.56;51.97
43147;BME280;28752;48.266;7.402;2023-04-02T10:37:55;99249.88;;;16.85;53.64
43147;BME280;28752;48.266;7.402;2023-04-02T10:42:58;99257.56;;;17.10;53.51
43147;BME280;28752;48.266;7.402;2023-04-02T10:45:49;99260.53;;;16.78;52.22
43147;BME280;28752;48.266;7.402;2023-04-02T10:56:10;99275.72;;;16.93;52.77
43147;BME280;28752;48.266;7.402;2023-04-02T10:59:25;99268.78;;;16.83;52.77
43147;BME280;28752;48.266;7.402;2023-04-02T11:01:27;99274.50;;;16.59;53.69
43147;BME280;28752;48.266;7.402;2023-04-02T11:03:58;99275.19;;;16.82;52.54
43147;BME280;28752;48.266;7.402;2023-04-02T11:06:37;99277.63;;;17.20;54.90
43147;BME280;28752;48.266;7.402;2023-04-02T11:09:14;99275.97;;;16.98;50.32
43147;BME280;28752;48.266;7.402;2023-04-02T11:11:42;99277.72;;;16.69;49.83
43147;BME280;28752;48.266;7.402;2023-04-02T11:14:28;99277.94;;;17.11;53.04
43147;BME280;28752;48.266;7.402;2023-04-02T11:16:55;99280.53;;;17.26;51.19
43147;BME280;28752;48.266;7.402;2023-04-02T11:19:26;99281.63;;;17.59;49.50
43147;BME280;28752;48.266;7.402;2023-04-02T11:24:59;99277.16;;;17.67;49.14
43147;BME280;28752;48.266;7.402;2023-04-02T11:29:55;99293.66;;;17.42;48.36
43147;BME280;28752;48.266;7.402;2023-04-02T11:37:43;99310.19;;;17.02;49.53
43147;BME280;28752;48.266;7.402;2023-04-02T11:50:41;99321.34;;;16.91;51.72
43147;BME280;28752;48.266;7.402;2023-04-02T11:56:05;99320.28;;;16.70;52.30
43147;BME280;28752;48.266;7.402;2023-04-02T12:11:00;99336.00;;;16.95;51.82
43147;BME280;28752;48.266;7.402;2023-04-02T12:16:05;99332.09;;;16.76;49.82
43147;BME280;28752;48.266;7.402;2023-04-02T12:18:31;99328.66;;;16.82;49.97
43147;BME280;28752;48.266;7.402;2023-04-02T12:20:57;99334.09;;;16.89;51.03
43147;BME280;28752;48.266;7.402;2023-04-02T12:23:26;99336.53;;;16.69;53.37
43147;BME280;28752;48.266;7.402;2023-04-02T12:28:27;99337.97;;;16.86;55.61
43147;BME280;28752;48.266;7.402;2023-04-02T12:31:10;99342.75;;;16.25;57.08
43147;BME280;28752;48.266;7.402;2023-04-02T12:33:41;99346.63;;;16.07;58.72
43147;BME280;28752;48.266;7.402;2023-04-02T12:36:18;99352.88;;;16.14;59.77
43147;BME280;28752;48.266;7.402;2023-04-02T12:38:56;99350.41;;;15.75;60.53
43147;BME280;28752;48.266;7.402;2023-04-02T12:44:02;99364.50;;;15.69;62.84
43147;BME280;28752;48.266;7.402;2023-04-02T12:46:29;99368.06;;;15.61;62.65
43147;BME280;28752;48.266;7.402;2023-04-02T12:49:20;99368.56;;;15.41;59.50
43147;BME280;28752;48.266;7.402;2023-04-02T12:51:47;99371.00;;;15.66;62.71
43147;BME280;28752;48.266;7.402;2023-04-02T12:54:15;99359.78;;;15.09;61.30
43147;BME280;28752;48.266;7.402;2023-04-02T12:56:42;99363.56;;;15.38;64.56
43147;BME280;28752;48.266;7.402;2023-04-02T12:59:34;99374.13;;;15.78;64.69
43147;BME280;28752;48.266;7.402;2023-04-02T13:02:02;99381.81;;;15.50;63.75
43147;BME280;28752;48.266;7.402;2023-04-02T13:04:53;99377.19;;;15.90;66.59
43147;BME280;28752;48.266;7.402;2023-04-02T13:07:22;99379.84;;;16.05;64.40
43147;BME280;28752;48.266;7.402;2023-04-02T13:09:51;99377.19;;;16.20;64.68
43147;BME280;28752;48.266;7.402;2023-04-02T13:12:43;99386.03;;;16.05;64.96
43147;BME280;28752;48.266;7.402;2023-04-02T13:17:47;99394.75;;;15.61;63.31
43147;BME280;28752;48.266;7.402;2023-04-02T13:22:56;99388.09;;;15.80;64.70
43147;BME280;28752;48.266;7.402;2023-04-02T13:25:29;99388.28;;;15.55;62.81
43147;BME280;28752;48.266;7.402;2023-04-02T13:27:55;99390.00;;;15.48;64.65
43147;BME280;28752;48.266;7.402;2023-04-02T13:30:24;99393.81;;;15.31;65.61
43147;BME280;28752;48.266;7.402;2023-04-02T13:32:49;99395.16;;;15.03;63.40
43147;BME280;28752;48.266;7.402;2023-04-02T13:35:15;99390.91;;;14.86;64.93
43147;BME280;28752;48.266;7.402;2023-04-02T13:37:40;99399.22;;;14.91;65.81
43147;BME280;28752;48.266;7.402;2023-04-02T13:40:06;99401.97;;;14.66;67.69
43147;BME280;28752;48.266;7.402;2023-04-02T13:42:32;99406.25;;;14.28;66.24
43147;BME280;28752;48.266;7.402;2023-04-02T13:44:57;99404.41;;;14.28;67.32
43147;BME280;28752;48.266;7.402;2023-04-02T13:47:23;99401.09;;;14.18;68.18
43147;BME280;28752;48.266;7.402;2023-04-02T13:49:48;99413.66;;;13.68;70.34
43147;BME280;28752;48.266;7.402;2023-04-02T13:52:14;99415.97;;;13.55;72.80
43147;BME280;28752;48.266;7.402;2023-04-02T13:57:08;99412.94;;;13.49;78.67
43147;BME280;28752;48.266;7.402;2023-04-02T13:59:33;99424.56;;;13.40;77.76
43147;BME280;28752;48.266;7.402;2023-04-02T14:02:03;99422.66;;;13.08;79.02
43147;BME280;28752;48.266;7.402;2023-04-02T14:04:37;99426.53;;;13.30;77.47
43147;BME280;28752;48.266;7.402;2023-04-02T14:09:37;99427.19;;;13.24;78.22
43147;BME280;28752;48.266;7.402;2023-04-02T14:12:27;99431.47;;;13.08;78.88
43147;BME280;28752;48.266;7.402;2023-04-02T14:23:09;99445.56;;;13.52;77.25
43147;BME280;28752;48.266;7.402;2023-04-02T14:28:20;99438.88;;;14.21;75.81
43147;BME280;28752;48.266;7.402;2023-04-02T14:31:18;99442.03;;;14.25;73.98
43147;BME280;28752;48.266;7.402;2023-04-02T14:42:12;99446.97;;;14.45;72.36
43147;BME280;28752;48.266;7.402;2023-04-02T14:44:45;99441.50;;;14.30;72.75
43147;BME280;28752;48.266;7.402;2023-04-02T14:47:30;99451.66;;;14.43;71.71
43147;BME280;28752;48.266;7.402;2023-04-02T14:50:07;99450.78;;;14.58;72.20
43147;BME280;28752;48.266;7.402;2023-04-02T14:52:36;99447.00;;;14.36;71.81
43147;BME280;28752;48.266;7.402;2023-04-02T14:58:17;99459.66;;;14.34;70.52
43147;BME280;28752;48.266;7.402;2023-04-02T15:00:54;99463.63;;;14.55;71.48
43147;BME280;28752;48.266;7.402;2023-04-02T15:03:24;99466.00;;;14.33;71.12
43147;BME280;28752;48.266;7.402;2023-04-02T15:05:57;99455.00;;;14.36;70.02
43147;BME280;28752;48.266;7.402;2023-04-02T15:09:29;99462.97;;;14.61;70.39
43147;BME280;28752;48.266;7.402;2023-04-02T15:11:37;99461.81;;;14.22;71.77
43147;BME280;28752;48.266;7.402;2023-04-02T15:14:26;99476.97;;;14.38;70.07
43147;BME280;28752;48.266;7.402;2023-04-02T15:16:55;99480.31;;;14.24;70.16
43147;BME280;28752;48.266;7.402;2023-04-02T15:19:21;99480.16;;;14.26;70.91
43147;BME280;28752;48.266;7.402;2023-04-02T15:24:39;99489.81;;;14.02;70.56
43147;BME280;28752;48.266;7.402;2023-04-02T15:27:39;99475.84;;;13.83;72.49
43147;BME280;28752;48.266;7.402;2023-04-02T15:30:17;99485.78;;;13.57;74.32
43147;BME280;28752;48.266;7.402;2023-04-02T15:32:45;99486.63;;;13.74;74.34
43147;BME280;28752;48.266;7.402;2023-04-02T15:38:03;99494.25;;;13.44;73.65
43147;BME280;28752;48.266;7.402;2023-04-02T15:43:30;99498.88;;;12.99;79.10
43147;BME280;28752;48.266;7.402;2023-04-02T15:49:00;99491.03;;;12.55;82.56
43147;BME280;28752;48.266;7.402;2023-04-02T15:56:43;99497.63;;;11.70;98.83
43147;BME280;28752;48.266;7.402;2023-04-02T15:59:42;99503.09;;;11.87;95.36
43147;BME280;28752;48.266;7.402;2023-04-02T16:04:44;99505.53;;;12.16;92.23
43147;BME280;28752;48.266;7.402;2023-04-02T16:12:52;99507.31;;;12.60;88.38
43147;BME280;28752;48.266;7.402;2023-04-02T16:15:27;99507.06;;;12.71;87.73
43147;BME280;28752;48.266;7.402;2023-04-02T16:18:06;99516.56;;;12.82;88.57
43147;BME280;28752;48.266;7.402;2023-04-02T16:20:43;99516.72;;;12.80;86.86
43147;BME280;28752;48.266;7.402;2023-04-02T16:23:21;99524.41;;;12.92;86.75
43147;BME280;28752;48.266;7.402;2023-04-02T16:26:11;99525.19;;;13.10;85.62
43147;BME280;28752;48.266;7.402;2023-04-02T16:34:58;99527.06;;;13.26;85.34
43147;BME280;28752;48.266;7.402;2023-04-02T16:40:39;99541.50;;;13.24;84.32
43147;BME280;28752;48.266;7.402;2023-04-02T16:43:12;99544.59;;;13.03;83.67
43147;BME280;28752;48.266;7.402;2023-04-02T16:51:40;99567.72;;;12.14;84.99
43147;BME280;28752;48.266;7.402;2023-04-02T16:54:18;99590.72;;;11.77;85.81
43147;BME280;28752;48.266;7.402;2023-04-02T16:59:35;99594.19;;;11.32;88.65
43147;BME280;28752;48.266;7.402;2023-04-02T17:08:23;99597.09;;;11.01;91.31
43147;BME280;28752;48.266;7.402;2023-04-02T17:11:08;99623.00;;;11.07;92.54
43147;BME280;28752;48.266;7.402;2023-04-02T17:16:35;99629.19;;;10.98;92.46
43147;BME280;28752;48.266;7.402;2023-04-02T17:19:09;99634.19;;;10.91;95.24
43147;BME280;28752;48.266;7.402;2023-04-02T17:21:35;99635.94;;;10.34;100.00
43147;BME280;28752;48.266;7.402;2023-04-02T17:24:20;99641.59;;;10.09;100.00
43147;BME280;28752;48.266;7.402;2023-04-02T17:26:51;99638.66;;;9.93;100.00
43147;BME280;28752;48.266;7.402;2023-04-02T17:29:24;99649.25;;;9.93;100.00
43147;BME280;28752;48.266;7.402;2023-04-02T17:31:52;99652.94;;;9.81;100.00